RYR47FB EHEH-LIBR
Flight info
| Callsign | RYR47FB |
|---|---|
| Flight time | 2h 3m |
| Altitude | 35000 |
| Route | VELNI DCT ONUNE DCT GMH DCT NEGIX DCT DINKU M867 XERUM DCT BAVAX DCT RADIZ DCT PENEP DCT RASTU DCT DEPET DCT SPL DCT RILIM DCT AIOSA L862 ENOXA |
| Aircraft | B738/M-SDE2E3FGHIRWXY/LB1 |
Departure
| Time | 2026-04-28 00:48 |
|---|---|
| Airport | Eindhoven Airport (EHEH) |
Arrival
| Time | 2026-04-28 02:51 |
|---|---|
| Airport | Brindisi Airport (LIBR) |
| Time | Latitude | Longitude | Altitude | Speed | Heading |
|---|---|---|---|---|---|
| 2026-04-28 00:13 | 51.45822 | 5.39014 | 84 ft | 0 kts | 123° |
| 2026-04-28 00:32 | 51.45829 | 5.38997 | 83 ft | 1 kts | 123° |
| 2026-04-28 00:32 | 51.45837 | 5.38978 | 83 ft | 2 kts | 124° |
| 2026-04-28 00:33 | 51.45844 | 5.38962 | 83 ft | 0 kts | 123° |
| 2026-04-28 00:33 | 51.45850 | 5.38944 | 83 ft | 2 kts | 102° |
| 2026-04-28 00:33 | 51.45851 | 5.38921 | 83 ft | 2 kts | 81° |
| 2026-04-28 00:33 | 51.45846 | 5.38898 | 83 ft | 2 kts | 57° |
| 2026-04-28 00:34 | 51.45838 | 5.38883 | 83 ft | 0 kts | 37° |
| 2026-04-28 00:34 | 51.45832 | 5.38877 | 83 ft | 1 kts | 34° |
| 2026-04-28 00:34 | 51.45832 | 5.38876 | 83 ft | 0 kts | 34° |
| 2026-04-28 00:34 | 51.45832 | 5.38877 | 83 ft | 0 kts | 34° |
| 2026-04-28 00:40 | 51.45833 | 5.38878 | 83 ft | 0 kts | 34° |
| 2026-04-28 00:41 | 51.45866 | 5.38914 | 83 ft | 10 kts | 34° |
| 2026-04-28 00:41 | 51.45931 | 5.38977 | 83 ft | 10 kts | 19° |
| 2026-04-28 00:41 | 51.45991 | 5.38933 | 83 ft | 11 kts | 308° |
| 2026-04-28 00:41 | 51.46041 | 5.38804 | 83 ft | 13 kts | 310° |
| 2026-04-28 00:42 | 51.46109 | 5.38665 | 83 ft | 17 kts | 306° |
| 2026-04-28 00:42 | 51.46158 | 5.38483 | 83 ft | 18 kts | 254° |
| 2026-04-28 00:42 | 51.46056 | 5.38344 | 83 ft | 22 kts | 212° |
| 2026-04-28 00:42 | 51.45928 | 5.38200 | 83 ft | 22 kts | 216° |
| 2026-04-28 00:43 | 51.45804 | 5.38060 | 83 ft | 21 kts | 214° |
| 2026-04-28 00:43 | 51.45681 | 5.37920 | 83 ft | 23 kts | 215° |
| 2026-04-28 00:43 | 51.45535 | 5.37757 | 83 ft | 27 kts | 215° |
| 2026-04-28 00:43 | 51.45364 | 5.37563 | 83 ft | 31 kts | 213° |
| 2026-04-28 00:44 | 51.45171 | 5.37350 | 83 ft | 35 kts | 215° |
| 2026-04-28 00:44 | 51.44970 | 5.37122 | 83 ft | 35 kts | 215° |
| 2026-04-28 00:44 | 51.44772 | 5.36900 | 83 ft | 34 kts | 213° |
| 2026-04-28 00:44 | 51.44581 | 5.36690 | 83 ft | 32 kts | 214° |
| 2026-04-28 00:45 | 51.44401 | 5.36486 | 83 ft | 31 kts | 214° |
| 2026-04-28 00:45 | 51.44224 | 5.36291 | 83 ft | 30 kts | 215° |
| 2026-04-28 00:45 | 51.44065 | 5.36110 | 83 ft | 22 kts | 215° |
| 2026-04-28 00:45 | 51.43977 | 5.36097 | 83 ft | 6 kts | 125° |
| 2026-04-28 00:46 | 51.43976 | 5.36100 | 83 ft | 0 kts | 126° |
| 2026-04-28 00:47 | 51.43975 | 5.36101 | 83 ft | 0 kts | 126° |
| 2026-04-28 00:47 | 51.43941 | 5.36173 | 83 ft | 14 kts | 127° |
| 2026-04-28 00:47 | 51.43930 | 5.36214 | 83 ft | 2 kts | 87° |
| 2026-04-28 00:48 | 51.43995 | 5.36311 | 83 ft | 23 kts | 33° |
| 2026-04-28 00:48 | 51.44268 | 5.36617 | 83 ft | 85 kts | 35° |
| 2026-04-28 00:48 | 51.44976 | 5.37403 | 85 ft | 158 kts | 35° |
| 2026-04-28 00:48 | 51.45949 | 5.38509 | 758 ft | 173 kts | 38° |
| 2026-04-28 00:49 | 51.46789 | 5.39594 | 1807 ft | 156 kts | 44° |
| 2026-04-28 00:49 | 51.47707 | 5.40798 | 1781 ft | 188 kts | 41° |
| 2026-04-28 00:49 | 51.48776 | 5.42191 | 1559 ft | 205 kts | 40° |
| 2026-04-28 00:49 | 51.49887 | 5.43551 | 1815 ft | 201 kts | 38° |
| 2026-04-28 00:50 | 51.51055 | 5.44859 | 2031 ft | 211 kts | 41° |
| 2026-04-28 00:50 | 51.51911 | 5.46699 | 1954 ft | 204 kts | 75° |
| 2026-04-28 00:50 | 51.51809 | 5.49015 | 2324 ft | 223 kts | 108° |
| 2026-04-28 00:50 | 51.51164 | 5.51204 | 3230 ft | 219 kts | 112° |
| 2026-04-28 00:51 | 51.50531 | 5.53410 | 3998 ft | 221 kts | 110° |
| 2026-04-28 00:51 | 51.49935 | 5.55692 | 4737 ft | 224 kts | 109° |
| 2026-04-28 00:51 | 51.49403 | 5.58032 | 5452 ft | 227 kts | 104° |
| 2026-04-28 00:51 | 51.49027 | 5.60532 | 5917 ft | 241 kts | 100° |
| 2026-04-28 00:52 | 51.48688 | 5.63232 | 6381 ft | 255 kts | 100° |
| 2026-04-28 00:52 | 51.48452 | 5.66090 | 6960 ft | 264 kts | 91° |
| 2026-04-28 00:52 | 51.48573 | 5.69034 | 7654 ft | 268 kts | 83° |
| 2026-04-28 00:52 | 51.48851 | 5.72022 | 8354 ft | 273 kts | 81° |
| 2026-04-28 00:53 | 51.49142 | 5.74999 | 9056 ft | 276 kts | 82° |
| 2026-04-28 00:53 | 51.49417 | 5.78056 | 9766 ft | 280 kts | 83° |
| 2026-04-28 00:53 | 51.49675 | 5.81165 | 10423 ft | 284 kts | 83° |
| 2026-04-28 00:53 | 51.49928 | 5.84360 | 10820 ft | 298 kts | 84° |
| 2026-04-28 00:54 | 51.50190 | 5.87728 | 11175 ft | 313 kts | 84° |
| 2026-04-28 00:54 | 51.50464 | 5.91245 | 11501 ft | 328 kts | 84° |
| 2026-04-28 00:54 | 51.50755 | 5.94989 | 11800 ft | 344 kts | 84° |
| 2026-04-28 00:54 | 51.51054 | 5.98848 | 12127 ft | 358 kts | 84° |
| 2026-04-28 00:55 | 51.51363 | 6.02821 | 12767 ft | 363 kts | 84° |
| 2026-04-28 00:55 | 51.51674 | 6.06838 | 13410 ft | 367 kts | 85° |
| 2026-04-28 00:55 | 51.51990 | 6.10930 | 13972 ft | 372 kts | 85° |
| 2026-04-28 00:55 | 51.52294 | 6.15044 | 14579 ft | 377 kts | 86° |
| 2026-04-28 00:56 | 51.52417 | 6.19249 | 15147 ft | 380 kts | 92° |
| 2026-04-28 00:56 | 51.52233 | 6.23487 | 15715 ft | 384 kts | 98° |
| 2026-04-28 00:56 | 51.51835 | 6.27722 | 16273 ft | 388 kts | 101° |
| 2026-04-28 00:56 | 51.51321 | 6.31957 | 16834 ft | 392 kts | 103° |
| 2026-04-28 00:57 | 51.50757 | 6.36254 | 17360 ft | 396 kts | 103° |
| 2026-04-28 00:57 | 51.50175 | 6.40610 | 17900 ft | 400 kts | 103° |
| 2026-04-28 00:57 | 51.49594 | 6.44996 | 18381 ft | 405 kts | 103° |
| 2026-04-28 00:57 | 51.49022 | 6.49381 | 18934 ft | 408 kts | 102° |
| 2026-04-28 00:58 | 51.48446 | 6.53852 | 19485 ft | 412 kts | 102° |
| 2026-04-28 00:58 | 51.47874 | 6.58320 | 19982 ft | 416 kts | 102° |
| 2026-04-28 00:58 | 51.47288 | 6.62900 | 20508 ft | 419 kts | 102° |
| 2026-04-28 00:58 | 51.46704 | 6.67461 | 21022 ft | 422 kts | 103° |
| 2026-04-28 00:59 | 51.46112 | 6.72061 | 21488 ft | 426 kts | 103° |
| 2026-04-28 00:59 | 51.45515 | 6.76690 | 21992 ft | 429 kts | 103° |
| 2026-04-28 00:59 | 51.44907 | 6.81383 | 22379 ft | 434 kts | 103° |
| 2026-04-28 00:59 | 51.44291 | 6.86132 | 22811 ft | 439 kts | 103° |
| 2026-04-28 01:00 | 51.43664 | 6.90949 | 23305 ft | 441 kts | 103° |
| 2026-04-28 01:00 | 51.43041 | 6.95729 | 23750 ft | 444 kts | 103° |
| 2026-04-28 01:00 | 51.42410 | 7.00546 | 24220 ft | 447 kts | 103° |
| 2026-04-28 01:00 | 51.41772 | 7.05405 | 24608 ft | 451 kts | 103° |
| 2026-04-28 01:01 | 51.41118 | 7.10365 | 25014 ft | 454 kts | 103° |
| 2026-04-28 01:01 | 51.40470 | 7.15265 | 25435 ft | 457 kts | 103° |
| 2026-04-28 01:01 | 51.39806 | 7.20256 | 25820 ft | 461 kts | 103° |
| 2026-04-28 01:01 | 51.39132 | 7.25308 | 26201 ft | 464 kts | 103° |
| 2026-04-28 01:02 | 51.38466 | 7.30299 | 26593 ft | 467 kts | 103° |
| 2026-04-28 01:02 | 51.37727 | 7.35426 | 26972 ft | 470 kts | 106° |
| 2026-04-28 01:02 | 51.36765 | 7.40412 | 27274 ft | 472 kts | 112° |
| 2026-04-28 01:02 | 51.35428 | 7.45137 | 27623 ft | 473 kts | 120° |
| 2026-04-28 01:03 | 51.33785 | 7.49724 | 28032 ft | 473 kts | 124° |
| 2026-04-28 01:03 | 51.32010 | 7.54161 | 28374 ft | 476 kts | 126° |
| 2026-04-28 01:03 | 51.30177 | 7.58517 | 28684 ft | 479 kts | 127° |
| 2026-04-28 01:03 | 51.28283 | 7.62929 | 28888 ft | 485 kts | 127° |
| 2026-04-28 01:04 | 51.26352 | 7.67409 | 29170 ft | 488 kts | 128° |
| 2026-04-28 01:04 | 51.24443 | 7.71855 | 29771 ft | 484 kts | 128° |
| 2026-04-28 01:04 | 51.22569 | 7.76238 | 30384 ft | 480 kts | 128° |
| 2026-04-28 01:04 | 51.20698 | 7.80636 | 31053 ft | 474 kts | 128° |
| 2026-04-28 01:05 | 51.18771 | 7.84921 | 31456 ft | 470 kts | 132° |
| 2026-04-28 01:05 | 51.16617 | 7.88860 | 31735 ft | 467 kts | 138° |
| 2026-04-28 01:05 | 51.14218 | 7.92418 | 31985 ft | 466 kts | 144° |
| 2026-04-28 01:05 | 51.11646 | 7.95499 | 32215 ft | 464 kts | 150° |
| 2026-04-28 01:06 | 51.08855 | 7.98164 | 32405 ft | 463 kts | 157° |
| 2026-04-28 01:06 | 51.05989 | 8.00343 | 32803 ft | 457 kts | 161° |
| 2026-04-28 01:06 | 51.03075 | 8.02333 | 33141 ft | 456 kts | 162° |
| 2026-04-28 01:06 | 51.00154 | 8.04294 | 33395 ft | 456 kts | 161° |
| 2026-04-28 01:07 | 50.97229 | 8.06309 | 33669 ft | 457 kts | 161° |
| 2026-04-28 01:07 | 50.94374 | 8.08352 | 33970 ft | 457 kts | 160° |
| 2026-04-28 01:07 | 50.91500 | 8.10479 | 34212 ft | 458 kts | 159° |
| 2026-04-28 01:07 | 50.89566 | 8.11945 | 34387 ft | 458 kts | 159° |
| 2026-04-28 01:08 | 50.85771 | 8.14883 | 34727 ft | 458 kts | 159° |
| 2026-04-28 01:08 | 50.82909 | 8.17139 | 34959 ft | 457 kts | 158° |
| 2026-04-28 01:08 | 50.80090 | 8.19382 | 35122 ft | 458 kts | 158° |
| 2026-04-28 01:09 | 50.74354 | 8.23974 | 35148 ft | 460 kts | 158° |
| 2026-04-28 01:09 | 50.68693 | 8.28524 | 35151 ft | 459 kts | 158° |
| 2026-04-28 01:10 | 50.62961 | 8.33123 | 35144 ft | 460 kts | 158° |
| 2026-04-28 01:10 | 50.57290 | 8.37665 | 35145 ft | 459 kts | 158° |
| 2026-04-28 01:11 | 50.51614 | 8.42197 | 35153 ft | 460 kts | 158° |
| 2026-04-28 01:11 | 50.45929 | 8.46724 | 35135 ft | 460 kts | 158° |
| 2026-04-28 01:12 | 50.40279 | 8.51364 | 35126 ft | 461 kts | 154° |
| 2026-04-28 01:12 | 50.35102 | 8.57488 | 35123 ft | 471 kts | 141° |
| 2026-04-28 01:13 | 50.30494 | 8.64809 | 35118 ft | 473 kts | 136° |
| 2026-04-28 01:13 | 50.23895 | 8.76179 | 35131 ft | 476 kts | 137° |
| 2026-04-28 01:14 | 50.19432 | 8.83786 | 35111 ft | 475 kts | 137° |
| 2026-04-28 01:14 | 50.14954 | 8.91298 | 35123 ft | 473 kts | 137° |
| 2026-04-28 01:15 | 50.10464 | 8.98753 | 35111 ft | 475 kts | 137° |
| 2026-04-28 01:15 | 50.05942 | 9.06208 | 35108 ft | 475 kts | 138° |
| 2026-04-28 01:16 | 50.01425 | 9.13633 | 35109 ft | 475 kts | 137° |
| 2026-04-28 01:16 | 49.96876 | 9.21090 | 35113 ft | 476 kts | 137° |
| 2026-04-28 01:17 | 49.92345 | 9.28499 | 35118 ft | 476 kts | 137° |
| 2026-04-28 01:17 | 49.87796 | 9.35910 | 35114 ft | 476 kts | 138° |
| 2026-04-28 01:18 | 49.83230 | 9.43333 | 35116 ft | 476 kts | 137° |
| 2026-04-28 01:18 | 49.78640 | 9.50773 | 35111 ft | 478 kts | 137° |
| 2026-04-28 01:19 | 49.74823 | 9.56941 | 35112 ft | 479 kts | 138° |
| 2026-04-28 01:19 | 49.69484 | 9.65546 | 35115 ft | 479 kts | 139° |
| 2026-04-28 01:20 | 49.64872 | 9.72952 | 35117 ft | 479 kts | 139° |
| 2026-04-28 01:20 | 49.60292 | 9.80288 | 35123 ft | 479 kts | 139° |
| 2026-04-28 01:21 | 49.55693 | 9.87636 | 35126 ft | 478 kts | 139° |
| 2026-04-28 01:21 | 49.51084 | 9.94974 | 35127 ft | 479 kts | 139° |
| 2026-04-28 01:22 | 49.46466 | 10.02303 | 35123 ft | 478 kts | 139° |
| 2026-04-28 01:22 | 49.41835 | 10.09631 | 35124 ft | 480 kts | 139° |
| 2026-04-28 01:23 | 49.37194 | 10.16958 | 35123 ft | 479 kts | 139° |
| 2026-04-28 01:23 | 49.32539 | 10.24282 | 35120 ft | 481 kts | 139° |
| 2026-04-28 01:24 | 49.27921 | 10.31528 | 35116 ft | 481 kts | 139° |
| 2026-04-28 01:24 | 49.23042 | 10.38569 | 35116 ft | 475 kts | 146° |
| 2026-04-28 01:25 | 49.17673 | 10.44220 | 35109 ft | 470 kts | 154° |
| 2026-04-28 01:25 | 49.12055 | 10.49242 | 35106 ft | 467 kts | 156° |
| 2026-04-28 01:26 | 49.06404 | 10.54180 | 35101 ft | 468 kts | 155° |
| 2026-04-28 01:26 | 49.00779 | 10.59142 | 35097 ft | 468 kts | 155° |
| 2026-04-28 01:27 | 48.95195 | 10.64123 | 35097 ft | 467 kts | 155° |
| 2026-04-28 01:27 | 48.89570 | 10.69164 | 35095 ft | 470 kts | 156° |
| 2026-04-28 01:28 | 48.83978 | 10.74255 | 35097 ft | 471 kts | 153° |
| 2026-04-28 01:28 | 48.78827 | 10.80440 | 35097 ft | 480 kts | 141° |
| 2026-04-28 01:29 | 48.74195 | 10.87781 | 35100 ft | 485 kts | 136° |
| 2026-04-28 01:29 | 48.69755 | 10.95409 | 35100 ft | 487 kts | 135° |
| 2026-04-28 01:30 | 48.65291 | 11.03079 | 35102 ft | 486 kts | 136° |
| 2026-04-28 01:30 | 48.60778 | 11.10728 | 35106 ft | 487 kts | 136° |
| 2026-04-28 01:31 | 48.56233 | 11.18325 | 35105 ft | 488 kts | 136° |
| 2026-04-28 01:31 | 48.52450 | 11.24599 | 35100 ft | 487 kts | 136° |
| 2026-04-28 01:32 | 48.47126 | 11.33382 | 35099 ft | 489 kts | 136° |
| 2026-04-28 01:32 | 48.42557 | 11.40900 | 35097 ft | 490 kts | 136° |
| 2026-04-28 01:33 | 48.37958 | 11.48445 | 35097 ft | 492 kts | 136° |
| 2026-04-28 01:33 | 48.33343 | 11.55999 | 35097 ft | 491 kts | 136° |
| 2026-04-28 01:34 | 48.28726 | 11.63537 | 35095 ft | 491 kts | 136° |
| 2026-04-28 01:34 | 48.24069 | 11.70962 | 35096 ft | 489 kts | 140° |
| 2026-04-28 01:35 | 48.19144 | 11.77875 | 35098 ft | 488 kts | 143° |
| 2026-04-28 01:35 | 48.14097 | 11.84615 | 35095 ft | 489 kts | 143° |
| 2026-04-28 01:36 | 48.09024 | 11.91375 | 35092 ft | 489 kts | 142° |
| 2026-04-28 01:36 | 48.03971 | 11.98171 | 35090 ft | 489 kts | 142° |
| 2026-04-28 01:37 | 47.98961 | 12.04948 | 35089 ft | 489 kts | 142° |
| 2026-04-28 01:37 | 47.93930 | 12.11762 | 35094 ft | 489 kts | 142° |
| 2026-04-28 01:38 | 47.88908 | 12.18560 | 35104 ft | 489 kts | 141° |
| 2026-04-28 01:38 | 47.83900 | 12.25322 | 35129 ft | 488 kts | 141° |
| 2026-04-28 01:39 | 47.78884 | 12.32076 | 35132 ft | 487 kts | 141° |
| 2026-04-28 01:39 | 47.74715 | 12.37674 | 35142 ft | 487 kts | 141° |
| 2026-04-28 01:40 | 47.68859 | 12.45517 | 35141 ft | 488 kts | 141° |
| 2026-04-28 01:40 | 47.63828 | 12.52236 | 35145 ft | 485 kts | 141° |
| 2026-04-28 01:41 | 47.58772 | 12.58787 | 35147 ft | 485 kts | 143° |
| 2026-04-28 01:41 | 47.53604 | 12.65070 | 35147 ft | 485 kts | 145° |
| 2026-04-28 01:42 | 47.48372 | 12.71331 | 35152 ft | 484 kts | 145° |
| 2026-04-28 01:42 | 47.43110 | 12.77640 | 35157 ft | 483 kts | 145° |
| 2026-04-28 01:43 | 47.37921 | 12.83882 | 35156 ft | 483 kts | 144° |
| 2026-04-28 01:43 | 47.32680 | 12.90193 | 35160 ft | 482 kts | 144° |
| 2026-04-28 01:44 | 47.27474 | 12.96455 | 35167 ft | 484 kts | 144° |
| 2026-04-28 01:44 | 47.22269 | 13.02699 | 35163 ft | 483 kts | 144° |
| 2026-04-28 01:45 | 47.17094 | 13.08896 | 35144 ft | 483 kts | 144° |
| 2026-04-28 01:45 | 47.11880 | 13.15124 | 35133 ft | 482 kts | 144° |
| 2026-04-28 01:46 | 47.06650 | 13.21351 | 35138 ft | 482 kts | 144° |
| 2026-04-28 01:46 | 47.01412 | 13.27571 | 35142 ft | 483 kts | 144° |
| 2026-04-28 01:47 | 46.96194 | 13.33753 | 35138 ft | 484 kts | 144° |
| 2026-04-28 01:47 | 46.91005 | 13.39882 | 35134 ft | 483 kts | 143° |
| 2026-04-28 01:48 | 46.85761 | 13.46064 | 35131 ft | 483 kts | 143° |
| 2026-04-28 01:48 | 46.80556 | 13.52182 | 35137 ft | 483 kts | 143° |
| 2026-04-28 01:49 | 46.75339 | 13.58297 | 35143 ft | 483 kts | 143° |
| 2026-04-28 01:49 | 46.70111 | 13.64413 | 35143 ft | 482 kts | 143° |
| 2026-04-28 01:50 | 46.64872 | 13.70522 | 35138 ft | 482 kts | 144° |
| 2026-04-28 01:50 | 46.59653 | 13.76595 | 35135 ft | 481 kts | 144° |
| 2026-04-28 01:51 | 46.54445 | 13.82640 | 35133 ft | 481 kts | 144° |
| 2026-04-28 01:51 | 46.49230 | 13.88675 | 35131 ft | 481 kts | 144° |
| 2026-04-28 01:52 | 46.44014 | 13.94697 | 35128 ft | 480 kts | 143° |
| 2026-04-28 01:52 | 46.38793 | 14.00710 | 35129 ft | 480 kts | 143° |
| 2026-04-28 01:53 | 46.33544 | 14.06740 | 35127 ft | 480 kts | 143° |
| 2026-04-28 01:53 | 46.28338 | 14.12706 | 35123 ft | 480 kts | 143° |
| 2026-04-28 01:54 | 46.23089 | 14.18704 | 35111 ft | 480 kts | 143° |
| 2026-04-28 01:54 | 46.17865 | 14.24661 | 35107 ft | 481 kts | 143° |
| 2026-04-28 01:55 | 46.12636 | 14.30616 | 35111 ft | 479 kts | 143° |
| 2026-04-28 01:55 | 46.07525 | 14.36782 | 35112 ft | 480 kts | 140° |
| 2026-04-28 01:56 | 46.02507 | 14.43104 | 35115 ft | 478 kts | 140° |
| 2026-04-28 01:56 | 45.97521 | 14.49388 | 35112 ft | 479 kts | 140° |
| 2026-04-28 01:57 | 45.92504 | 14.55653 | 35115 ft | 480 kts | 140° |
| 2026-04-28 01:57 | 45.87450 | 14.61917 | 35109 ft | 479 kts | 140° |
| 2026-04-28 01:58 | 45.82417 | 14.68125 | 35111 ft | 478 kts | 141° |
| 2026-04-28 01:58 | 45.77405 | 14.74284 | 35107 ft | 477 kts | 141° |
| 2026-04-28 01:59 | 45.72379 | 14.80442 | 35113 ft | 477 kts | 141° |
| 2026-04-28 01:59 | 45.67334 | 14.86607 | 35114 ft | 478 kts | 141° |
| 2026-04-28 02:00 | 45.62276 | 14.92771 | 35108 ft | 478 kts | 141° |
| 2026-04-28 02:00 | 45.57258 | 14.98875 | 35108 ft | 476 kts | 141° |
| 2026-04-28 02:01 | 45.52219 | 15.04989 | 35109 ft | 476 kts | 141° |
| 2026-04-28 02:01 | 45.47178 | 15.11091 | 35108 ft | 476 kts | 141° |
| 2026-04-28 02:02 | 45.42158 | 15.17154 | 35108 ft | 477 kts | 140° |
| 2026-04-28 02:02 | 45.37117 | 15.23226 | 35109 ft | 477 kts | 140° |
| 2026-04-28 02:03 | 45.32020 | 15.29349 | 35107 ft | 476 kts | 140° |
| 2026-04-28 02:03 | 45.26954 | 15.35422 | 35107 ft | 476 kts | 140° |
| 2026-04-28 02:04 | 45.21911 | 15.41452 | 35104 ft | 475 kts | 140° |
| 2026-04-28 02:04 | 45.16842 | 15.47499 | 35107 ft | 475 kts | 140° |
| 2026-04-28 02:05 | 45.11811 | 15.53485 | 35102 ft | 475 kts | 140° |
| 2026-04-28 02:05 | 45.06741 | 15.59504 | 35105 ft | 473 kts | 140° |
| 2026-04-28 02:06 | 45.01691 | 15.65485 | 35097 ft | 474 kts | 141° |
| 2026-04-28 02:06 | 44.96624 | 15.71466 | 35093 ft | 473 kts | 141° |
| 2026-04-28 02:07 | 44.91400 | 15.77042 | 35095 ft | 473 kts | 147° |
| 2026-04-28 02:07 | 44.85806 | 15.81960 | 35102 ft | 472 kts | 150° |
| 2026-04-28 02:08 | 44.80184 | 15.86641 | 35098 ft | 472 kts | 150° |
| 2026-04-28 02:08 | 44.74543 | 15.91347 | 35096 ft | 470 kts | 150° |
| 2026-04-28 02:09 | 44.68764 | 15.95826 | 35098 ft | 470 kts | 157° |
| 2026-04-28 02:09 | 44.62613 | 15.98692 | 35093 ft | 467 kts | 168° |
| 2026-04-28 02:10 | 44.56269 | 16.00617 | 35104 ft | 467 kts | 171° |
| 2026-04-28 02:10 | 44.49906 | 16.02332 | 35103 ft | 467 kts | 171° |
| 2026-04-28 02:11 | 44.43547 | 16.04053 | 35101 ft | 466 kts | 171° |
| 2026-04-28 02:11 | 44.37181 | 16.05818 | 35106 ft | 468 kts | 170° |
| 2026-04-28 02:12 | 44.30817 | 16.07611 | 35111 ft | 467 kts | 170° |
| 2026-04-28 02:12 | 44.24421 | 16.09427 | 35107 ft | 466 kts | 170° |
| 2026-04-28 02:13 | 44.18080 | 16.11230 | 35091 ft | 466 kts | 169° |
| 2026-04-28 02:13 | 44.11727 | 16.13036 | 35086 ft | 466 kts | 169° |
| 2026-04-28 02:14 | 44.05354 | 16.14843 | 35065 ft | 466 kts | 169° |
| 2026-04-28 02:14 | 43.99009 | 16.16637 | 35056 ft | 466 kts | 169° |
| 2026-04-28 02:15 | 43.89420 | 16.19343 | 35065 ft | 466 kts | 169° |
| 2026-04-28 02:16 | 43.83045 | 16.21137 | 35060 ft | 465 kts | 169° |
| 2026-04-28 02:16 | 43.76722 | 16.22912 | 35062 ft | 465 kts | 169° |
| 2026-04-28 02:17 | 43.70360 | 16.24694 | 35060 ft | 465 kts | 169° |
| 2026-04-28 02:17 | 43.64046 | 16.26459 | 35055 ft | 465 kts | 169° |
| 2026-04-28 02:18 | 43.57721 | 16.28223 | 35054 ft | 465 kts | 169° |
| 2026-04-28 02:18 | 43.51391 | 16.30072 | 35053 ft | 464 kts | 166° |
| 2026-04-28 02:19 | 43.45278 | 16.32901 | 35051 ft | 465 kts | 158° |
| 2026-04-28 02:19 | 43.39368 | 16.36485 | 35046 ft | 464 kts | 155° |
| 2026-04-28 02:20 | 43.33498 | 16.40233 | 35048 ft | 464 kts | 155° |
| 2026-04-28 02:20 | 43.27669 | 16.43923 | 35038 ft | 464 kts | 155° |
| 2026-04-28 02:21 | 43.21780 | 16.47590 | 35039 ft | 464 kts | 155° |
| 2026-04-28 02:21 | 43.15894 | 16.51215 | 35033 ft | 464 kts | 155° |
| 2026-04-28 02:22 | 43.09999 | 16.54822 | 35035 ft | 464 kts | 155° |
| 2026-04-28 02:22 | 43.04127 | 16.58402 | 35031 ft | 463 kts | 155° |
| 2026-04-28 02:23 | 42.98268 | 16.61964 | 35032 ft | 462 kts | 155° |
| 2026-04-28 02:23 | 42.92405 | 16.65522 | 35029 ft | 464 kts | 156° |
| 2026-04-28 02:24 | 42.86494 | 16.69101 | 35028 ft | 463 kts | 156° |
| 2026-04-28 02:24 | 42.80603 | 16.72662 | 35030 ft | 463 kts | 156° |
| 2026-04-28 02:25 | 42.74738 | 16.76200 | 35029 ft | 462 kts | 156° |
| 2026-04-28 02:25 | 42.68871 | 16.79730 | 35029 ft | 463 kts | 156° |
| 2026-04-28 02:26 | 42.62994 | 16.83259 | 35029 ft | 463 kts | 156° |
| 2026-04-28 02:26 | 42.57106 | 16.86785 | 35030 ft | 463 kts | 156° |
| 2026-04-28 02:27 | 42.51201 | 16.90315 | 35028 ft | 463 kts | 156° |
| 2026-04-28 02:27 | 42.45410 | 16.93769 | 34721 ft | 451 kts | 156° |
| 2026-04-28 02:27 | 42.42552 | 16.95471 | 34433 ft | 443 kts | 156° |
| 2026-04-28 02:28 | 42.39761 | 16.97131 | 34003 ft | 438 kts | 156° |
| 2026-04-28 02:28 | 42.36978 | 16.98786 | 33486 ft | 436 kts | 156° |
| 2026-04-28 02:28 | 42.34232 | 17.00417 | 32972 ft | 434 kts | 156° |
| 2026-04-28 02:28 | 42.31480 | 17.02051 | 32453 ft | 431 kts | 156° |
| 2026-04-28 02:29 | 42.28759 | 17.03664 | 31943 ft | 429 kts | 156° |
| 2026-04-28 02:29 | 42.26026 | 17.05284 | 31413 ft | 427 kts | 156° |
| 2026-04-28 02:29 | 42.23322 | 17.06885 | 30896 ft | 424 kts | 156° |
| 2026-04-28 02:29 | 42.20642 | 17.08469 | 30389 ft | 422 kts | 156° |
| 2026-04-28 02:30 | 42.17955 | 17.10056 | 29867 ft | 419 kts | 156° |
| 2026-04-28 02:30 | 42.15298 | 17.11624 | 29362 ft | 416 kts | 156° |
| 2026-04-28 02:30 | 42.12651 | 17.13184 | 28855 ft | 414 kts | 156° |
| 2026-04-28 02:30 | 42.10025 | 17.14731 | 28352 ft | 411 kts | 156° |
| 2026-04-28 02:31 | 42.07444 | 17.16249 | 27854 ft | 408 kts | 156° |
| 2026-04-28 02:31 | 42.04848 | 17.17775 | 27348 ft | 406 kts | 156° |
| 2026-04-28 02:31 | 42.02274 | 17.19287 | 26848 ft | 403 kts | 156° |
| 2026-04-28 02:31 | 41.99729 | 17.20781 | 26351 ft | 401 kts | 156° |
| 2026-04-28 02:32 | 41.97158 | 17.22288 | 25850 ft | 399 kts | 156° |
| 2026-04-28 02:32 | 41.94634 | 17.23766 | 25358 ft | 396 kts | 156° |
| 2026-04-28 02:32 | 41.92126 | 17.25234 | 24870 ft | 394 kts | 156° |
| 2026-04-28 02:32 | 41.89622 | 17.26699 | 24375 ft | 392 kts | 156° |
| 2026-04-28 02:33 | 41.87132 | 17.28156 | 23886 ft | 389 kts | 156° |
| 2026-04-28 02:33 | 41.84687 | 17.29585 | 23404 ft | 387 kts | 156° |
| 2026-04-28 02:33 | 41.82212 | 17.31030 | 22916 ft | 385 kts | 156° |
| 2026-04-28 02:33 | 41.79792 | 17.32443 | 22441 ft | 383 kts | 156° |
| 2026-04-28 02:34 | 41.77348 | 17.33868 | 21963 ft | 380 kts | 156° |
| 2026-04-28 02:34 | 41.74950 | 17.35265 | 21486 ft | 378 kts | 156° |
| 2026-04-28 02:34 | 41.72527 | 17.36675 | 21006 ft | 376 kts | 156° |
| 2026-04-28 02:34 | 41.70159 | 17.38052 | 20532 ft | 374 kts | 156° |
| 2026-04-28 02:35 | 41.67767 | 17.39442 | 20057 ft | 372 kts | 156° |
| 2026-04-28 02:35 | 41.65395 | 17.40819 | 19579 ft | 370 kts | 156° |
| 2026-04-28 02:35 | 41.63047 | 17.42181 | 19105 ft | 368 kts | 156° |
| 2026-04-28 02:35 | 41.60720 | 17.43529 | 18640 ft | 366 kts | 156° |
| 2026-04-28 02:36 | 41.58398 | 17.44875 | 18174 ft | 364 kts | 156° |
| 2026-04-28 02:36 | 41.56098 | 17.46207 | 17716 ft | 362 kts | 157° |
| 2026-04-28 02:36 | 41.53794 | 17.47540 | 17249 ft | 360 kts | 156° |
| 2026-04-28 02:36 | 41.51510 | 17.48859 | 16788 ft | 358 kts | 156° |
| 2026-04-28 02:37 | 41.49226 | 17.50177 | 16333 ft | 356 kts | 156° |
| 2026-04-28 02:37 | 41.46953 | 17.51488 | 15873 ft | 354 kts | 156° |
| 2026-04-28 02:37 | 41.44718 | 17.52777 | 15406 ft | 352 kts | 156° |
| 2026-04-28 02:37 | 41.42486 | 17.54063 | 14959 ft | 349 kts | 156° |
| 2026-04-28 02:38 | 41.40276 | 17.55335 | 14499 ft | 347 kts | 156° |
| 2026-04-28 02:38 | 41.38071 | 17.56604 | 14043 ft | 344 kts | 156° |
| 2026-04-28 02:38 | 41.35906 | 17.57849 | 13597 ft | 335 kts | 156° |
| 2026-04-28 02:38 | 41.33799 | 17.59060 | 13175 ft | 323 kts | 156° |
| 2026-04-28 02:39 | 41.31776 | 17.60221 | 12791 ft | 314 kts | 156° |
| 2026-04-28 02:39 | 41.29790 | 17.61359 | 12336 ft | 313 kts | 156° |
| 2026-04-28 02:39 | 41.27784 | 17.62508 | 11928 ft | 312 kts | 156° |
| 2026-04-28 02:39 | 41.25804 | 17.63641 | 11523 ft | 310 kts | 156° |
| 2026-04-28 02:40 | 41.23818 | 17.64778 | 11112 ft | 308 kts | 156° |
| 2026-04-28 02:40 | 41.21856 | 17.65900 | 10706 ft | 307 kts | 156° |
| 2026-04-28 02:40 | 41.19902 | 17.67013 | 10300 ft | 305 kts | 156° |
| 2026-04-28 02:40 | 41.17977 | 17.68062 | 10046 ft | 298 kts | 158° |
| 2026-04-28 02:41 | 41.16075 | 17.69055 | 9931 ft | 287 kts | 158° |
| 2026-04-28 02:41 | 41.14211 | 17.70017 | 9518 ft | 288 kts | 158° |
| 2026-04-28 02:41 | 41.12355 | 17.70980 | 9166 ft | 286 kts | 158° |
| 2026-04-28 02:41 | 41.10518 | 17.71937 | 8816 ft | 284 kts | 157° |
| 2026-04-28 02:42 | 41.08686 | 17.72896 | 8473 ft | 282 kts | 157° |
| 2026-04-28 02:42 | 41.06870 | 17.73847 | 8126 ft | 280 kts | 157° |
| 2026-04-28 02:42 | 41.05063 | 17.74794 | 7778 ft | 279 kts | 157° |
| 2026-04-28 02:42 | 41.03276 | 17.75730 | 7437 ft | 277 kts | 157° |
| 2026-04-28 02:43 | 41.01496 | 17.76661 | 7091 ft | 275 kts | 157° |
| 2026-04-28 02:43 | 40.99725 | 17.77587 | 6749 ft | 273 kts | 157° |
| 2026-04-28 02:43 | 40.97971 | 17.78503 | 6416 ft | 272 kts | 157° |
| 2026-04-28 02:43 | 40.96218 | 17.79418 | 6074 ft | 270 kts | 157° |
| 2026-04-28 02:44 | 40.94460 | 17.80336 | 5684 ft | 271 kts | 157° |
| 2026-04-28 02:44 | 40.92719 | 17.81244 | 5321 ft | 270 kts | 157° |
| 2026-04-28 02:44 | 40.90973 | 17.82075 | 5021 ft | 267 kts | 166° |
| 2026-04-28 02:44 | 40.89139 | 17.82042 | 4680 ft | 268 kts | 198° |
| 2026-04-28 02:45 | 40.87645 | 17.80695 | 4459 ft | 256 kts | 234° |
| 2026-04-28 02:45 | 40.86858 | 17.78690 | 4335 ft | 238 kts | 248° |
| 2026-04-28 02:45 | 40.86214 | 17.76748 | 4185 ft | 223 kts | 243° |
| 2026-04-28 02:45 | 40.85400 | 17.75081 | 3974 ft | 212 kts | 222° |
| 2026-04-28 02:46 | 40.84144 | 17.74297 | 3752 ft | 197 kts | 179° |
| 2026-04-28 02:46 | 40.82867 | 17.74673 | 3576 ft | 185 kts | 151° |
| 2026-04-28 02:46 | 40.81837 | 17.75634 | 3390 ft | 182 kts | 135° |
| 2026-04-28 02:46 | 40.80877 | 17.76737 | 3207 ft | 182 kts | 141° |
| 2026-04-28 02:47 | 40.79857 | 17.77717 | 3004 ft | 182 kts | 142° |
| 2026-04-28 02:47 | 40.78860 | 17.78736 | 2815 ft | 179 kts | 137° |
| 2026-04-28 02:47 | 40.77942 | 17.79840 | 2664 ft | 178 kts | 135° |
| 2026-04-28 02:47 | 40.77039 | 17.80957 | 2513 ft | 179 kts | 135° |
| 2026-04-28 02:48 | 40.76147 | 17.82055 | 2304 ft | 174 kts | 135° |
| 2026-04-28 02:48 | 40.75271 | 17.83127 | 2054 ft | 164 kts | 135° |
| 2026-04-28 02:48 | 40.74464 | 17.84117 | 1835 ft | 154 kts | 135° |
| 2026-04-28 02:48 | 40.73696 | 17.85058 | 1655 ft | 152 kts | 135° |
| 2026-04-28 02:49 | 40.72913 | 17.86017 | 1453 ft | 152 kts | 135° |
| 2026-04-28 02:49 | 40.72154 | 17.86948 | 1286 ft | 150 kts | 135° |
| 2026-04-28 02:49 | 40.71387 | 17.87888 | 1047 ft | 148 kts | 135° |
| 2026-04-28 02:49 | 40.70635 | 17.88809 | 859 ft | 147 kts | 136° |
| 2026-04-28 02:50 | 40.69883 | 17.89730 | 671 ft | 147 kts | 136° |
| 2026-04-28 02:50 | 40.69141 | 17.90637 | 482 ft | 146 kts | 135° |
| 2026-04-28 02:50 | 40.68397 | 17.91563 | 282 ft | 146 kts | 135° |
| 2026-04-28 02:50 | 40.67661 | 17.92461 | 105 ft | 145 kts | 136° |
| 2026-04-28 02:51 | 40.66941 | 17.93339 | 28 ft | 128 kts | 136° |
| 2026-04-28 02:51 | 40.66405 | 17.94008 | 24 ft | 88 kts | 136° |
| 2026-04-28 02:51 | 40.65990 | 17.94507 | 28 ft | 66 kts | 137° |
| 2026-04-28 02:51 | 40.65786 | 17.94632 | 29 ft | 23 kts | 233° |
| 2026-04-28 02:52 | 40.65693 | 17.94471 | 31 ft | 21 kts | 233° |
| 2026-04-28 02:52 | 40.65612 | 17.94328 | 34 ft | 18 kts | 233° |
| 2026-04-28 02:52 | 40.65535 | 17.94196 | 34 ft | 17 kts | 233° |
| 2026-04-28 02:52 | 40.65464 | 17.94072 | 37 ft | 15 kts | 231° |
| 2026-04-28 02:53 | 40.65403 | 17.93975 | 40 ft | 12 kts | 230° |
| 2026-04-28 02:53 | 40.65361 | 17.93863 | 41 ft | 16 kts | 285° |
| 2026-04-28 02:53 | 40.65441 | 17.93766 | 42 ft | 14 kts | 333° |
| 2026-04-28 02:53 | 40.65520 | 17.93791 | 41 ft | 13 kts | 66° |
| 2026-04-28 02:54 | 40.65570 | 17.93879 | 40 ft | 8 kts | 358° |
| 2026-04-28 02:54 | 40.65611 | 17.93851 | 41 ft | 5 kts | 323° |
| 2026-04-28 02:54 | 40.65639 | 17.93839 | 41 ft | 0 kts | 4° |